createdAt,value
2024-04-21T00:01:48.057Z,4.33
2024-04-21T00:04:15.420Z,4.22
2024-04-21T00:06:42.764Z,4.45
2024-04-21T00:09:09.956Z,4.38
2024-04-21T00:11:37.121Z,4.33
2024-04-21T00:14:04.495Z,4.37
2024-04-21T00:16:31.776Z,4.47
2024-04-21T00:18:59.043Z,4.26
2024-04-21T00:21:26.395Z,4.18
2024-04-21T00:23:53.585Z,4.35
2024-04-21T00:26:20.824Z,4.27
2024-04-21T00:28:50.877Z,4.42
2024-04-21T00:31:18.197Z,4.37
2024-04-21T00:33:45.515Z,4.36
2024-04-21T00:36:12.748Z,4.48
2024-04-21T00:38:39.916Z,4.35
2024-04-21T00:41:07.097Z,4.34
2024-04-21T00:43:34.255Z,4.34
2024-04-21T00:46:02.220Z,4.14
2024-04-21T00:48:29.430Z,4.33
2024-04-21T00:50:57.259Z,4.07
2024-04-21T00:53:25.428Z,4.23
2024-04-21T00:55:53.937Z,4.32
2024-04-21T00:58:21.194Z,4.30
2024-04-21T01:00:48.690Z,4.34
2024-04-21T01:03:16.352Z,4.46
2024-04-21T01:05:43.531Z,4.49
2024-04-21T01:08:11.151Z,4.62
2024-04-21T01:10:38.342Z,4.73
2024-04-21T01:13:13.151Z,4.60
2024-04-21T01:15:40.747Z,4.62
2024-04-21T01:18:08.786Z,4.45
2024-04-21T01:20:36.599Z,4.40
2024-04-21T01:23:04.711Z,4.65
2024-04-21T01:25:31.873Z,4.52
2024-04-21T01:27:59.132Z,4.24
2024-04-21T01:30:26.406Z,4.15
2024-04-21T01:32:53.799Z,4.07
2024-04-21T01:35:21.056Z,4.36
2024-04-21T01:37:48.219Z,4.44
2024-04-21T01:40:17.135Z,4.41
2024-04-21T01:42:44.528Z,4.46
2024-04-21T01:45:11.890Z,4.46
2024-04-21T01:47:39.153Z,4.52
2024-04-21T01:50:11.316Z,4.69
2024-04-21T01:52:39.423Z,4.58
2024-04-21T01:55:06.832Z,4.56
2024-04-21T01:57:34.050Z,4.47
2024-04-21T02:00:01.229Z,4.46
2024-04-21T02:02:28.514Z,4.40
2024-04-21T02:04:55.848Z,4.30
2024-04-21T02:07:23.074Z,4.20
2024-04-21T02:09:50.284Z,4.34
2024-04-21T02:12:17.480Z,4.34
2024-04-21T02:14:44.640Z,4.37
2024-04-21T02:17:11.816Z,4.16
2024-04-21T02:19:39.000Z,4.30
2024-04-21T02:22:06.164Z,4.21
2024-04-21T02:24:41.587Z,4.33
2024-04-21T02:27:08.743Z,4.35
2024-04-21T02:29:35.959Z,4.34
2024-04-21T02:32:03.270Z,4.44
2024-04-21T02:34:30.466Z,4.48
2024-04-21T02:36:57.655Z,4.48
2024-04-21T02:39:24.828Z,4.60
2024-04-21T02:41:51.996Z,4.48
2024-04-21T02:44:19.160Z,4.48
2024-04-21T02:46:47.225Z,4.48
2024-04-21T02:49:15.498Z,4.43
2024-04-21T02:51:42.769Z,4.29
2024-04-21T02:54:09.975Z,4.10
2024-04-21T02:56:37.144Z,4.43
2024-04-21T02:59:04.350Z,4.42
2024-04-21T03:01:31.694Z,4.48
2024-04-21T03:03:59.126Z,4.52
2024-04-21T03:06:26.489Z,4.61
2024-04-21T03:08:53.650Z,4.54
2024-04-21T03:11:20.823Z,4.62
2024-04-21T03:13:48.471Z,4.53
2024-04-21T03:16:15.939Z,4.25
2024-04-21T03:18:43.245Z,4.53
2024-04-21T03:21:10.395Z,4.33
2024-04-21T03:23:37.648Z,4.47
2024-04-21T03:26:05.370Z,4.48
2024-04-21T03:28:32.608Z,4.51
2024-04-21T03:31:01.600Z,4.46
2024-04-21T03:33:29.119Z,4.38
2024-04-21T03:36:03.881Z,4.34
2024-04-21T03:38:31.765Z,4.16
2024-04-21T03:40:58.944Z,4.14
2024-04-21T03:43:26.233Z,4.24
2024-04-21T03:45:53.530Z,4.07
2024-04-21T03:48:20.717Z,3.96
2024-04-21T03:50:47.902Z,4.01
2024-04-21T03:53:18.034Z,4.11
2024-04-21T03:55:45.610Z,4.11
2024-04-21T03:58:13.785Z,3.96
2024-04-21T04:00:41.045Z,4.03
2024-04-21T04:03:08.413Z,3.85
2024-04-21T04:05:35.634Z,3.79
2024-04-21T04:08:02.801Z,3.93
2024-04-21T04:10:30.022Z,4.08
2024-04-21T04:12:57.686Z,4.28
2024-04-21T04:15:24.882Z,4.22
2024-04-21T04:17:52.109Z,4.33
2024-04-21T04:20:19.619Z,4.35
2024-04-21T04:22:46.997Z,4.18
2024-04-21T04:25:14.310Z,4.25
2024-04-21T04:27:41.567Z,4.12
2024-04-21T04:30:09.213Z,4.25
2024-04-21T04:32:36.489Z,4.33
2024-04-21T04:35:03.900Z,4.50
2024-04-21T04:37:31.132Z,4.48
2024-04-21T04:39:58.334Z,4.46
2024-04-21T04:42:25.517Z,4.34
2024-04-21T04:44:52.911Z,4.41
2024-04-21T04:47:20.097Z,4.53
2024-04-21T04:49:47.316Z,4.31
2024-04-21T04:52:14.494Z,4.22
2024-04-21T04:54:41.665Z,4.21
2024-04-21T04:57:08.834Z,4.05
2024-04-21T04:59:36.015Z,3.94
2024-04-21T05:02:03.192Z,3.93
2024-04-21T05:04:30.530Z,3.97
2024-04-21T05:06:57.765Z,3.99
2024-04-21T05:09:25.045Z,4.07
2024-04-21T05:11:52.215Z,4.08
2024-04-21T05:14:19.437Z,3.83
2024-04-21T05:16:46.765Z,3.89
2024-04-21T05:19:14.052Z,3.96
2024-04-21T05:21:41.260Z,3.99
2024-04-21T05:24:08.422Z,4.02
2024-04-21T05:26:36.129Z,4.07
2024-04-21T05:29:03.283Z,4.03
2024-04-21T05:31:30.446Z,4.08
2024-04-21T05:33:57.644Z,4.02
2024-04-21T05:36:24.875Z,3.97
2024-04-21T05:38:53.255Z,3.78
2024-04-21T05:41:20.508Z,3.93
2024-04-21T05:43:48.237Z,3.85
2024-04-21T05:46:15.500Z,3.79
2024-04-21T05:48:42.666Z,3.81
2024-04-21T05:51:09.860Z,3.87
2024-04-21T05:53:37.033Z,4.00
2024-04-21T05:56:04.984Z,4.11
2024-04-21T05:58:32.256Z,4.03
2024-04-21T06:01:01.195Z,4.17
2024-04-21T06:03:28.462Z,4.21
2024-04-21T06:05:55.620Z,4.24
2024-04-21T06:08:22.787Z,4.10
2024-04-21T06:10:49.936Z,4.03
2024-04-21T06:13:17.119Z,4.11
2024-04-21T06:15:44.281Z,4.06
2024-04-21T06:18:11.500Z,3.99
2024-04-21T06:20:38.717Z,3.81
2024-04-21T06:23:05.904Z,4.00
2024-04-21T06:25:33.070Z,3.99
2024-04-21T06:28:00.361Z,4.13
2024-04-21T06:30:27.606Z,4.08
2024-04-21T06:32:54.847Z,4.17
2024-04-21T06:35:22.041Z,4.22
2024-04-21T06:37:49.211Z,4.32
2024-04-21T06:40:17.452Z,4.18
2024-04-21T06:42:44.859Z,4.16
2024-04-21T06:45:12.526Z,4.25
2024-04-21T06:47:39.732Z,4.36
2024-04-21T06:50:06.984Z,4.31
2024-04-21T06:52:34.386Z,4.25
2024-04-21T06:55:01.600Z,4.27
2024-04-21T06:57:28.928Z,4.18
2024-04-21T06:59:56.094Z,4.25
2024-04-21T07:02:23.376Z,4.38
2024-04-21T07:04:50.689Z,4.52
2024-04-21T07:07:18.997Z,4.52
2024-04-21T07:09:46.378Z,4.65
2024-04-21T07:12:13.569Z,4.47
2024-04-21T07:14:40.744Z,4.40
2024-04-21T07:17:08.738Z,4.42
2024-04-21T07:19:35.982Z,4.48
2024-04-21T07:22:03.285Z,4.59
2024-04-21T07:24:32.580Z,4.56
2024-04-21T07:27:01.227Z,4.49
2024-04-21T07:29:28.381Z,4.65
2024-04-21T07:31:55.988Z,4.56
2024-04-21T07:34:23.444Z,4.53
2024-04-21T07:36:50.700Z,4.58
2024-04-21T07:39:18.958Z,4.60
2024-04-21T07:41:46.205Z,4.69
2024-04-21T07:44:13.374Z,4.69
2024-04-21T07:46:40.610Z,4.72
2024-04-21T07:49:07.945Z,4.85
2024-04-21T07:51:35.170Z,4.96
2024-04-21T07:54:02.376Z,4.96
2024-04-21T07:56:29.577Z,5.02
2024-04-21T07:58:56.788Z,5.04
2024-04-21T08:01:24.080Z,5.08
2024-04-21T08:03:51.372Z,5.03
2024-04-21T08:06:18.616Z,4.79
2024-04-21T08:08:48.112Z,4.88
2024-04-21T08:11:17.863Z,4.94
2024-04-21T08:13:45.344Z,5.02
2024-04-21T08:16:12.589Z,4.91
2024-04-21T08:18:39.866Z,4.80
2024-04-21T08:21:07.247Z,4.99
2024-04-21T08:23:34.445Z,5.08
2024-04-21T08:26:04.223Z,5.28
2024-04-21T08:28:31.620Z,5.35
2024-04-21T08:30:58.886Z,5.56
2024-04-21T08:33:28.043Z,5.60
2024-04-21T08:35:59.262Z,5.74
2024-04-21T08:38:27.172Z,5.61
2024-04-21T08:40:54.333Z,5.79
2024-04-21T08:43:27.346Z,5.88
2024-04-21T08:45:56.412Z,5.74
2024-04-21T08:48:26.714Z,5.69
2024-04-21T08:50:53.945Z,5.82
2024-04-21T08:53:21.137Z,5.89
2024-04-21T08:55:50.097Z,5.83
2024-04-21T08:58:18.741Z,5.99
2024-04-21T09:00:49.614Z,6.09
2024-04-21T09:03:17.832Z,6.11
2024-04-21T09:05:51.307Z,6.25
2024-04-21T09:08:18.461Z,6.16
2024-04-21T09:10:45.714Z,5.99
2024-04-21T09:13:13.007Z,6.18
2024-04-21T09:15:40.186Z,6.27
2024-04-21T09:18:08.011Z,6.22
2024-04-21T09:20:38.281Z,6.26
2024-04-21T09:23:08.861Z,6.36
2024-04-21T09:25:37.775Z,6.53
2024-04-21T09:28:05.669Z,6.69
2024-04-21T09:30:32.882Z,6.72
2024-04-21T09:33:00.168Z,6.69
2024-04-21T09:35:27.413Z,6.77
2024-04-21T09:37:55.314Z,6.82
2024-04-21T09:40:24.785Z,6.79
2024-04-21T09:42:52.275Z,6.67
2024-04-21T09:45:21.079Z,6.76
2024-04-21T09:47:48.992Z,6.76
2024-04-21T09:50:16.501Z,6.50
2024-04-21T09:52:48.556Z,6.59
2024-04-21T09:55:16.010Z,6.63
2024-04-21T09:57:45.366Z,6.54
2024-04-21T10:00:14.517Z,6.54
2024-04-21T10:02:48.287Z,6.54
2024-04-21T10:05:19.690Z,6.42
2024-04-21T10:07:52.256Z,6.55
2024-04-21T10:10:24.856Z,6.56
2024-04-21T10:12:53.027Z,6.56
2024-04-21T10:15:22.809Z,6.63
2024-04-21T10:17:57.641Z,6.58
2024-04-21T10:20:36.061Z,6.73
2024-04-21T10:23:12.619Z,6.80
2024-04-21T10:25:45.346Z,6.79
2024-04-21T10:28:25.960Z,6.97
2024-04-21T10:31:03.540Z,7.05
2024-04-21T10:33:30.483Z,7.01
2024-04-21T10:35:57.629Z,7.11
2024-04-21T10:38:25.226Z,7.04
2024-04-21T10:40:52.559Z,7.02
2024-04-21T10:43:26.308Z,7.06
2024-04-21T10:45:59.200Z,7.15
2024-04-21T10:48:26.610Z,7.23
2024-04-21T10:50:54.644Z,7.17
2024-04-21T10:53:22.006Z,7.30
2024-04-21T10:55:54.966Z,7.51
2024-04-21T10:58:22.712Z,7.62
2024-04-21T11:00:50.737Z,7.74
2024-04-21T11:03:18.151Z,7.87
2024-04-21T11:06:02.394Z,7.95
2024-04-21T11:08:29.981Z,7.93
2024-04-21T11:10:57.983Z,7.83
2024-04-21T11:13:25.444Z,7.86
2024-04-21T11:15:52.777Z,7.69
2024-04-21T11:18:20.552Z,7.66
2024-04-21T11:20:48.159Z,7.64
2024-04-21T11:23:20.110Z,7.68
2024-04-21T11:25:53.750Z,7.88
2024-04-21T11:28:23.631Z,7.78
2024-04-21T11:31:04.754Z,7.66
2024-04-21T11:33:35.533Z,7.73
2024-04-21T11:36:21.271Z,7.77
2024-04-21T11:38:50.501Z,7.80
2024-04-21T11:41:17.714Z,7.83
2024-04-21T11:43:54.090Z,7.72
2024-04-21T11:46:21.282Z,7.60
2024-04-21T11:48:53.377Z,7.20
2024-04-21T11:51:21.022Z,6.41
2024-04-21T11:53:49.072Z,6.16
2024-04-21T11:56:16.241Z,6.39
2024-04-21T11:58:43.438Z,6.43
2024-04-21T12:01:10.827Z,5.99
2024-04-21T12:03:38.268Z,6.17
2024-04-21T12:06:05.502Z,5.69
2024-04-21T12:08:32.700Z,6.04
2024-04-21T12:10:59.973Z,6.20
2024-04-21T12:13:27.249Z,6.15
2024-04-21T12:15:54.548Z,6.06
2024-04-21T12:18:21.739Z,5.69
2024-04-21T12:20:48.918Z,5.96
2024-04-21T12:23:16.059Z,6.16
2024-04-21T12:25:43.243Z,6.19
2024-04-21T12:28:10.478Z,5.66
2024-04-21T12:30:39.788Z,6.04
2024-04-21T12:33:08.813Z,5.82
2024-04-21T12:35:36.143Z,5.83
2024-04-21T12:38:04.949Z,5.98
2024-04-21T12:40:32.220Z,5.89
2024-04-21T12:42:59.496Z,6.05
2024-04-21T12:45:26.708Z,6.14
2024-04-21T12:47:53.972Z,6.22
2024-04-21T12:50:21.319Z,6.10
2024-04-21T12:52:48.515Z,5.94
2024-04-21T12:55:15.743Z,5.89
2024-04-21T12:57:43.761Z,5.60
2024-04-21T13:00:11.348Z,5.99
2024-04-21T13:02:39.675Z,5.95
2024-04-21T13:05:07.671Z,6.03
2024-04-21T13:07:34.959Z,6.16
2024-04-21T13:10:02.296Z,6.37
2024-04-21T13:12:30.591Z,6.54
2024-04-21T13:14:58.105Z,6.47
2024-04-21T13:17:25.350Z,6.01
2024-04-21T13:19:52.569Z,5.99
2024-04-21T13:22:20.874Z,6.05
2024-04-21T13:24:48.101Z,6.13
2024-04-21T13:27:15.326Z,6.13
2024-04-21T13:29:45.393Z,6.23
2024-04-21T13:32:12.697Z,5.80
2024-04-21T13:34:39.875Z,6.05
2024-04-21T13:37:07.102Z,6.34
2024-04-21T13:39:34.344Z,6.72
2024-04-21T13:42:01.737Z,6.52
2024-04-21T13:44:28.932Z,6.26
2024-04-21T13:46:56.122Z,6.35
2024-04-21T13:49:23.308Z,6.10
2024-04-21T13:51:50.579Z,6.09
2024-04-21T13:54:17.836Z,6.16
2024-04-21T13:56:45.061Z,6.43
2024-04-21T13:59:13.820Z,6.29
2024-04-21T14:01:41.045Z,6.25
2024-04-21T14:04:08.291Z,6.47
2024-04-21T14:06:35.538Z,6.37
2024-04-21T14:09:02.814Z,6.55
2024-04-21T14:11:30.738Z,6.64
2024-04-21T14:13:59.216Z,6.29
2024-04-21T14:16:27.779Z,6.48
2024-04-21T14:18:56.923Z,6.74
2024-04-21T14:21:25.739Z,6.97
2024-04-21T14:23:52.931Z,7.15
2024-04-21T14:26:20.106Z,7.26
2024-04-21T14:28:47.337Z,7.27
2024-04-21T14:31:14.537Z,7.16
2024-04-21T14:33:41.747Z,7.03
2024-04-21T14:36:08.902Z,7.10
2024-04-21T14:38:36.047Z,7.09
2024-04-21T14:41:03.210Z,7.07
2024-04-21T14:43:33.406Z,7.00
2024-04-21T14:46:00.853Z,6.60
2024-04-21T14:48:28.141Z,5.95
2024-04-21T14:50:58.933Z,5.85
2024-04-21T14:53:26.375Z,5.49
2024-04-21T14:55:57.220Z,5.53
2024-04-21T14:58:24.590Z,5.47
2024-04-21T15:00:51.881Z,5.00
2024-04-21T15:03:19.249Z,4.91
2024-04-21T15:05:46.515Z,4.98
2024-04-21T15:08:13.700Z,5.02
2024-04-21T15:10:40.917Z,5.03
2024-04-21T15:13:08.131Z,4.90
2024-04-21T15:15:35.285Z,4.79
2024-04-21T15:18:02.657Z,4.68
2024-04-21T15:20:29.882Z,4.68
2024-04-21T15:22:57.074Z,4.67
2024-04-21T15:25:24.401Z,4.50
2024-04-21T15:27:54.309Z,4.52
2024-04-21T15:30:22.043Z,4.63
2024-04-21T15:32:49.466Z,4.48
2024-04-21T15:35:16.952Z,4.59
2024-04-21T15:37:44.272Z,4.68
2024-04-21T15:40:13.688Z,4.60
2024-04-21T15:42:41.482Z,4.67
2024-04-21T15:45:09.279Z,4.34
2024-04-21T15:47:36.831Z,4.44
2024-04-21T15:50:04.904Z,4.19
2024-04-21T15:52:32.259Z,4.20
2024-04-21T15:55:01.033Z,4.42
2024-04-21T15:57:28.949Z,4.37
2024-04-21T15:59:56.235Z,4.43
2024-04-21T16:02:23.448Z,4.47
2024-04-21T16:04:50.708Z,4.42
2024-04-21T16:07:19.507Z,4.40
2024-04-21T16:09:46.987Z,4.48
2024-04-21T16:12:14.140Z,4.32
2024-04-21T16:14:41.308Z,4.45
2024-04-21T16:17:09.049Z,4.46
2024-04-21T16:19:36.355Z,4.61
2024-04-21T16:22:03.664Z,4.54
2024-04-21T16:24:30.903Z,4.49
2024-04-21T16:26:58.036Z,4.60
2024-04-21T16:29:25.201Z,4.66
2024-04-21T16:31:52.342Z,4.57
2024-04-21T16:34:19.765Z,4.71
2024-04-21T16:36:47.045Z,4.54
2024-04-21T16:39:14.427Z,4.71
2024-04-21T16:41:41.839Z,4.59
2024-04-21T16:44:09.313Z,4.56
2024-04-21T16:46:40.861Z,4.63
2024-04-21T16:49:08.499Z,4.50
2024-04-21T16:51:35.852Z,4.42
2024-04-21T16:54:03.253Z,4.48
2024-04-21T16:56:34.942Z,4.67
2024-04-21T16:59:02.579Z,4.72
2024-04-21T17:01:30.014Z,4.66
2024-04-21T17:03:57.753Z,4.62
2024-04-21T17:06:26.346Z,4.72
2024-04-21T17:08:54.382Z,4.81
2024-04-21T17:11:21.788Z,4.76
2024-04-21T17:13:49.476Z,4.85
2024-04-21T17:16:17.068Z,4.78
2024-04-21T17:18:45.149Z,4.77
2024-04-21T17:21:12.762Z,4.87
2024-04-21T17:23:40.027Z,5.01
2024-04-21T17:26:07.272Z,4.78
2024-04-21T17:28:34.532Z,4.84
2024-04-21T17:31:01.797Z,4.99
2024-04-21T17:33:29.135Z,4.97
2024-04-21T17:35:56.349Z,5.16
2024-04-21T17:38:23.991Z,5.13
2024-04-21T17:40:52.214Z,4.98
2024-04-21T17:43:19.402Z,5.11
2024-04-21T17:45:46.823Z,4.99
2024-04-21T17:48:14.546Z,4.79
2024-04-21T17:50:41.742Z,4.77
2024-04-21T17:53:08.902Z,4.81
2024-04-21T17:55:36.178Z,4.84
2024-04-21T17:58:03.398Z,4.82
2024-04-21T18:00:30.926Z,4.80
2024-04-21T18:02:58.391Z,4.71
2024-04-21T18:05:25.596Z,4.91
2024-04-21T18:07:55.640Z,4.77
2024-04-21T18:10:23.520Z,4.83
2024-04-21T18:12:50.753Z,4.80
2024-04-21T18:15:17.936Z,4.40
2024-04-21T18:17:45.101Z,4.60
2024-04-21T18:20:12.290Z,4.65
2024-04-21T18:22:39.860Z,4.66
2024-04-21T18:25:07.610Z,4.66
2024-04-21T18:27:34.846Z,4.85
2024-04-21T18:30:02.202Z,4.82
2024-04-21T18:32:29.567Z,4.91
2024-04-21T18:34:56.847Z,4.80
2024-04-21T18:37:24.026Z,4.80
2024-04-21T18:39:51.351Z,4.77
2024-04-21T18:42:19.029Z,4.71
2024-04-21T18:44:51.481Z,4.74
2024-04-21T18:47:18.876Z,4.71
2024-04-21T18:49:46.175Z,4.72
2024-04-21T18:52:13.448Z,4.79
2024-04-21T18:54:41.002Z,4.48
2024-04-21T18:57:08.162Z,4.52
2024-04-21T18:59:38.908Z,4.67
2024-04-21T19:02:14.352Z,4.73
2024-04-21T19:04:41.620Z,4.67
2024-04-21T19:07:08.842Z,4.58
2024-04-21T19:09:36.513Z,4.71
2024-04-21T19:12:03.979Z,4.29
2024-04-21T19:14:31.424Z,4.52
2024-04-21T19:16:58.936Z,4.63
2024-04-21T19:19:26.407Z,4.50
2024-04-21T19:21:53.768Z,4.55
2024-04-21T19:24:21.102Z,4.48
2024-04-21T19:26:48.293Z,4.18
2024-04-21T19:29:15.455Z,4.37
2024-04-21T19:31:42.641Z,4.46
2024-04-21T19:34:09.868Z,4.56
2024-04-21T19:36:37.075Z,4.37
2024-04-21T19:39:04.267Z,4.36
2024-04-21T19:41:31.441Z,4.35
2024-04-21T19:43:58.599Z,4.54
2024-04-21T19:46:26.788Z,4.62
2024-04-21T19:48:54.126Z,4.45
2024-04-21T19:51:21.389Z,4.36
2024-04-21T19:53:48.579Z,4.26
2024-04-21T19:56:17.796Z,4.32
2024-04-21T19:58:45.109Z,4.25
2024-04-21T20:01:12.522Z,4.18
2024-04-21T20:03:39.824Z,4.04
2024-04-21T20:06:13.561Z,4.08
2024-04-21T20:08:40.722Z,4.10
2024-04-21T20:11:11.755Z,3.93
2024-04-21T20:13:39.130Z,4.04
2024-04-21T20:16:25.889Z,4.01
2024-04-21T20:18:54.261Z,4.16
2024-04-21T20:21:21.469Z,4.27
2024-04-21T20:23:48.642Z,4.07
2024-04-21T20:26:19.169Z,4.02
2024-04-21T20:28:47.251Z,3.90
2024-04-21T20:31:16.419Z,4.04
2024-04-21T20:33:48.586Z,4.06
2024-04-21T20:36:25.527Z,4.09
2024-04-21T20:38:54.785Z,4.01
2024-04-21T20:41:22.744Z,3.64
2024-04-21T20:43:51.732Z,3.78
2024-04-21T20:46:23.524Z,3.73
2024-04-21T20:48:51.998Z,3.73
2024-04-21T20:51:19.180Z,3.53
2024-04-21T20:53:46.581Z,3.50
2024-04-21T20:56:14.290Z,3.45
2024-04-21T20:58:50.075Z,3.52
2024-04-21T21:01:20.403Z,3.40
2024-04-21T21:03:49.837Z,3.39
2024-04-21T21:06:17.212Z,3.36
2024-04-21T21:08:46.358Z,3.12
2024-04-21T21:11:14.029Z,3.25
2024-04-21T21:13:41.546Z,3.50
2024-04-21T21:16:08.730Z,3.38
2024-04-21T21:18:36.098Z,3.55
2024-04-21T21:21:03.387Z,3.35
2024-04-21T21:23:30.758Z,3.53
2024-04-21T21:25:58.660Z,3.56
2024-04-21T21:28:25.895Z,3.51
2024-04-21T21:30:53.075Z,3.52
2024-04-21T21:33:20.454Z,3.40
2024-04-21T21:35:57.389Z,3.58
2024-04-21T21:38:29.855Z,3.58
2024-04-21T21:40:57.647Z,3.40
2024-04-21T21:43:25.614Z,3.32
2024-04-21T21:45:53.075Z,3.08
2024-04-21T21:48:20.323Z,3.29
2024-04-21T21:50:47.559Z,3.52
2024-04-21T21:53:14.726Z,3.66
2024-04-21T21:55:42.633Z,3.59
2024-04-21T21:58:10.266Z,3.74
2024-04-21T22:00:38.350Z,3.75
2024-04-21T22:03:05.951Z,3.69
2024-04-21T22:05:33.487Z,3.67
2024-04-21T22:08:00.705Z,3.66
2024-04-21T22:10:28.560Z,3.85
2024-04-21T22:12:56.892Z,3.45
2024-04-21T22:15:24.038Z,3.62
2024-04-21T22:17:51.382Z,3.62
2024-04-21T22:20:20.073Z,3.71
2024-04-21T22:22:50.717Z,3.71
2024-04-21T22:25:19.548Z,3.77
2024-04-21T22:27:46.756Z,3.65
2024-04-21T22:30:13.920Z,3.44
2024-04-21T22:32:42.589Z,3.30
2024-04-21T22:35:09.890Z,3.52
2024-04-21T22:37:37.105Z,3.59
2024-04-21T22:40:04.679Z,3.55
2024-04-21T22:42:31.992Z,3.72
2024-04-21T22:44:59.247Z,3.63
2024-04-21T22:47:26.531Z,3.70
2024-04-21T22:49:54.124Z,3.76
2024-04-21T22:52:23.734Z,3.86
2024-04-21T22:54:51.133Z,3.51
2024-04-21T22:57:18.308Z,3.33
2024-04-21T22:59:45.467Z,2.91
2024-04-21T23:02:12.667Z,3.20
2024-04-21T23:04:39.905Z,3.52
2024-04-21T23:07:07.482Z,3.50
2024-04-21T23:09:34.782Z,3.59
2024-04-21T23:12:01.997Z,3.64
2024-04-21T23:14:29.229Z,3.73
2024-04-21T23:16:56.411Z,3.67
2024-04-21T23:19:23.625Z,3.77
2024-04-21T23:21:50.817Z,3.71
2024-04-21T23:24:17.985Z,3.70
2024-04-21T23:26:45.141Z,3.74
2024-04-21T23:29:12.324Z,3.71
2024-04-21T23:31:39.548Z,3.37
2024-04-21T23:34:08.703Z,3.43
2024-04-21T23:36:36.105Z,3.57
2024-04-21T23:39:03.461Z,3.66
2024-04-21T23:41:30.688Z,3.63
2024-04-21T23:43:57.917Z,3.62
2024-04-21T23:46:25.170Z,3.51
2024-04-21T23:48:52.363Z,3.72
2024-04-21T23:51:19.515Z,3.69
2024-04-21T23:53:46.713Z,3.50
2024-04-21T23:56:13.968Z,3.56
2024-04-21T23:58:41.171Z,3.53
